CCM72PE LFPO-LFKC
Flight info
| Callsign | CCM72PE |
|---|---|
| Flight time | 1h 14m |
| Altitude | 37000 |
| Route | LATRA DCT LAMUT DCT UTUVA DCT TITVA DCT NOQAS DCT OTROT DCT RETNO DCT KOLON DCT NARTI UP991 NIRDO |
| Aircraft | A320/M-SDE3FGHIRWY/LB1 |
Departure
| Time | 2026-04-22 16:44 |
|---|---|
| Airport | Paris-Orly Airport (LFPO) |
Arrival
| Time | 2026-04-22 17:58 |
|---|---|
| Airport | Calvi Sainte Catherine Airport (LFKC) |
| Time | Latitude | Longitude | Altitude | Speed | Heading |
|---|---|---|---|---|---|
| 2026-04-22 15:32 | 48.72825 | 2.35693 | 295 ft | 0 kts | 40° |
| 2026-04-22 16:34 | 48.72816 | 2.35681 | 301 ft | 4 kts | 41° |
| 2026-04-22 16:34 | 48.72796 | 2.35655 | 298 ft | 4 kts | 42° |
| 2026-04-22 16:34 | 48.72782 | 2.35625 | 301 ft | 4 kts | 84° |
| 2026-04-22 16:34 | 48.72788 | 2.35592 | 302 ft | 4 kts | 143° |
| 2026-04-22 16:35 | 48.72806 | 2.35579 | 301 ft | 4 kts | 164° |
| 2026-04-22 16:35 | 48.72820 | 2.35573 | 300 ft | 0 kts | 164° |
| 2026-04-22 16:39 | 48.72804 | 2.35581 | 300 ft | 8 kts | 164° |
| 2026-04-22 16:39 | 48.72734 | 2.35493 | 297 ft | 15 kts | 218° |
| 2026-04-22 16:40 | 48.72666 | 2.35512 | 300 ft | 11 kts | 164° |
| 2026-04-22 16:40 | 48.72572 | 2.35552 | 300 ft | 17 kts | 164° |
| 2026-04-22 16:40 | 48.72290 | 2.35614 | 300 ft | 24 kts | 201° |
| 2026-04-22 16:41 | 48.72150 | 2.35628 | 296 ft | 14 kts | 162° |
| 2026-04-22 16:41 | 48.72056 | 2.35696 | 296 ft | 14 kts | 137° |
| 2026-04-22 16:41 | 48.72032 | 2.35739 | 300 ft | 0 kts | 122° |
| 2026-04-22 16:42 | 48.72032 | 2.35740 | 300 ft | 0 kts | 122° |
| 2026-04-22 16:42 | 48.72023 | 2.35763 | 298 ft | 7 kts | 120° |
| 2026-04-22 16:42 | 48.71980 | 2.35872 | 298 ft | 15 kts | 127° |
| 2026-04-22 16:43 | 48.71971 | 2.36021 | 301 ft | 16 kts | 73° |
| 2026-04-22 16:43 | 48.72025 | 2.36319 | 297 ft | 61 kts | 74° |
| 2026-04-22 16:43 | 48.72202 | 2.37274 | 300 ft | 124 kts | 74° |
| 2026-04-22 16:43 | 48.72447 | 2.38674 | 664 ft | 139 kts | 75° |
| 2026-04-22 16:44 | 48.72708 | 2.40097 | 1362 ft | 141 kts | 75° |
| 2026-04-22 16:44 | 48.72984 | 2.41535 | 2105 ft | 143 kts | 75° |
| 2026-04-22 16:44 | 48.73280 | 2.43094 | 2542 ft | 165 kts | 75° |
| 2026-04-22 16:44 | 48.73608 | 2.44879 | 2929 ft | 186 kts | 76° |
| 2026-04-22 16:45 | 48.73967 | 2.46900 | 3303 ft | 211 kts | 79° |
| 2026-04-22 16:45 | 48.74088 | 2.49242 | 3845 ft | 233 kts | 87° |
| 2026-04-22 16:45 | 48.74171 | 2.51746 | 4677 ft | 241 kts | 88° |
| 2026-04-22 16:45 | 48.74261 | 2.54300 | 5617 ft | 245 kts | 89° |
| 2026-04-22 16:46 | 48.74136 | 2.56874 | 6524 ft | 249 kts | 110° |
| 2026-04-22 16:46 | 48.73086 | 2.58958 | 7320 ft | 259 kts | 143° |
| 2026-04-22 16:46 | 48.71422 | 2.60139 | 8134 ft | 270 kts | 159° |
| 2026-04-22 16:46 | 48.69587 | 2.60881 | 9017 ft | 275 kts | 163° |
| 2026-04-22 16:47 | 48.67704 | 2.61528 | 9900 ft | 280 kts | 164° |
| 2026-04-22 16:47 | 48.65751 | 2.62025 | 10602 ft | 293 kts | 172° |
| 2026-04-22 16:47 | 48.64354 | 2.61964 | 10798 ft | 312 kts | 184° |
| 2026-04-22 16:47 | 48.61476 | 2.60665 | 11401 ft | 339 kts | 204° |
| 2026-04-22 16:48 | 48.59329 | 2.58985 | 12149 ft | 345 kts | 205° |
| 2026-04-22 16:48 | 48.57200 | 2.57346 | 12891 ft | 350 kts | 205° |
| 2026-04-22 16:48 | 48.55013 | 2.55676 | 13639 ft | 355 kts | 205° |
| 2026-04-22 16:48 | 48.52791 | 2.53981 | 14276 ft | 362 kts | 205° |
| 2026-04-22 16:49 | 48.50524 | 2.52248 | 14927 ft | 366 kts | 206° |
| 2026-04-22 16:49 | 48.48243 | 2.50493 | 15624 ft | 369 kts | 207° |
| 2026-04-22 16:49 | 48.45922 | 2.48802 | 16266 ft | 374 kts | 202° |
| 2026-04-22 16:49 | 48.43423 | 2.47582 | 16866 ft | 380 kts | 198° |
| 2026-04-22 16:50 | 48.40868 | 2.46424 | 17524 ft | 384 kts | 198° |
| 2026-04-22 16:50 | 48.38304 | 2.45267 | 18239 ft | 386 kts | 199° |
| 2026-04-22 16:50 | 48.36597 | 2.44494 | 18674 ft | 387 kts | 200° |
| 2026-04-22 16:50 | 48.34003 | 2.43320 | 19237 ft | 391 kts | 200° |
| 2026-04-22 16:51 | 48.31348 | 2.42315 | 19786 ft | 398 kts | 192° |
| 2026-04-22 16:51 | 48.28566 | 2.42036 | 20327 ft | 405 kts | 180° |
| 2026-04-22 16:51 | 48.25741 | 2.42581 | 20854 ft | 412 kts | 168° |
| 2026-04-22 16:51 | 48.22995 | 2.43887 | 21394 ft | 417 kts | 161° |
| 2026-04-22 16:52 | 48.20248 | 2.45360 | 21925 ft | 421 kts | 161° |
| 2026-04-22 16:52 | 48.17473 | 2.46841 | 22455 ft | 425 kts | 161° |
| 2026-04-22 16:52 | 48.14670 | 2.48327 | 22994 ft | 429 kts | 161° |
| 2026-04-22 16:52 | 48.11842 | 2.49818 | 23527 ft | 433 kts | 161° |
| 2026-04-22 16:53 | 48.08989 | 2.51319 | 24004 ft | 436 kts | 162° |
| 2026-04-22 16:53 | 48.06151 | 2.52797 | 24454 ft | 439 kts | 162° |
| 2026-04-22 16:53 | 48.03245 | 2.54257 | 24911 ft | 441 kts | 163° |
| 2026-04-22 16:53 | 48.00282 | 2.55705 | 25339 ft | 445 kts | 164° |
| 2026-04-22 16:54 | 47.97359 | 2.57117 | 25707 ft | 448 kts | 164° |
| 2026-04-22 16:54 | 47.94389 | 2.58552 | 26169 ft | 450 kts | 165° |
| 2026-04-22 16:54 | 47.91403 | 2.60002 | 26595 ft | 452 kts | 165° |
| 2026-04-22 16:54 | 47.88411 | 2.61464 | 27015 ft | 454 kts | 165° |
| 2026-04-22 16:55 | 47.85405 | 2.62939 | 27425 ft | 456 kts | 165° |
| 2026-04-22 16:55 | 47.82385 | 2.64423 | 27825 ft | 458 kts | 165° |
| 2026-04-22 16:55 | 47.79352 | 2.65911 | 28226 ft | 460 kts | 165° |
| 2026-04-22 16:55 | 47.76308 | 2.67400 | 28609 ft | 462 kts | 165° |
| 2026-04-22 16:56 | 47.73249 | 2.68892 | 29030 ft | 463 kts | 166° |
| 2026-04-22 16:56 | 47.70188 | 2.70382 | 29408 ft | 465 kts | 166° |
| 2026-04-22 16:56 | 47.67106 | 2.71879 | 29769 ft | 467 kts | 166° |
| 2026-04-22 16:56 | 47.64010 | 2.73377 | 30125 ft | 469 kts | 166° |
| 2026-04-22 16:57 | 47.60901 | 2.74880 | 30433 ft | 471 kts | 166° |
| 2026-04-22 16:57 | 47.57780 | 2.76391 | 30682 ft | 473 kts | 166° |
| 2026-04-22 16:57 | 47.54639 | 2.77917 | 30933 ft | 476 kts | 166° |
| 2026-04-22 16:57 | 47.51493 | 2.79445 | 31209 ft | 477 kts | 166° |
| 2026-04-22 16:58 | 47.48323 | 2.80979 | 31451 ft | 480 kts | 166° |
| 2026-04-22 16:58 | 47.45140 | 2.82518 | 31682 ft | 482 kts | 166° |
| 2026-04-22 16:58 | 47.41948 | 2.84059 | 31974 ft | 483 kts | 166° |
| 2026-04-22 16:58 | 47.38757 | 2.85598 | 32286 ft | 483 kts | 166° |
| 2026-04-22 16:59 | 47.35557 | 2.87138 | 32586 ft | 484 kts | 166° |
| 2026-04-22 16:59 | 47.32358 | 2.88673 | 32910 ft | 483 kts | 165° |
| 2026-04-22 16:59 | 47.29159 | 2.90203 | 33261 ft | 484 kts | 166° |
| 2026-04-22 16:59 | 47.25945 | 2.91738 | 33483 ft | 486 kts | 166° |
| 2026-04-22 17:00 | 47.22721 | 2.93277 | 33759 ft | 488 kts | 165° |
| 2026-04-22 17:00 | 47.16249 | 2.96358 | 34320 ft | 489 kts | 165° |
| 2026-04-22 17:00 | 47.13017 | 2.97897 | 34608 ft | 489 kts | 165° |
| 2026-04-22 17:01 | 47.09773 | 2.99411 | 34931 ft | 487 kts | 166° |
| 2026-04-22 17:01 | 47.06570 | 3.00804 | 35237 ft | 485 kts | 167° |
| 2026-04-22 17:01 | 47.03319 | 3.02133 | 35527 ft | 484 kts | 168° |
| 2026-04-22 17:01 | 47.00065 | 3.03418 | 35812 ft | 483 kts | 168° |
| 2026-04-22 17:02 | 46.96826 | 3.04691 | 36089 ft | 482 kts | 168° |
| 2026-04-22 17:02 | 46.93595 | 3.05977 | 36349 ft | 481 kts | 168° |
| 2026-04-22 17:02 | 46.90373 | 3.07277 | 36599 ft | 480 kts | 168° |
| 2026-04-22 17:02 | 46.87157 | 3.08593 | 36867 ft | 479 kts | 167° |
| 2026-04-22 17:03 | 46.83949 | 3.09913 | 37080 ft | 479 kts | 167° |
| 2026-04-22 17:03 | 46.80751 | 3.11232 | 37135 ft | 476 kts | 167° |
| 2026-04-22 17:03 | 46.74390 | 3.13837 | 37122 ft | 474 kts | 168° |
| 2026-04-22 17:04 | 46.68036 | 3.16411 | 37117 ft | 474 kts | 168° |
| 2026-04-22 17:04 | 46.61680 | 3.18991 | 37116 ft | 474 kts | 168° |
| 2026-04-22 17:05 | 46.55323 | 3.21562 | 37113 ft | 474 kts | 168° |
| 2026-04-22 17:05 | 46.48972 | 3.24136 | 37110 ft | 474 kts | 168° |
| 2026-04-22 17:06 | 46.42606 | 3.26706 | 37104 ft | 475 kts | 168° |
| 2026-04-22 17:06 | 46.36237 | 3.29270 | 37101 ft | 475 kts | 168° |
| 2026-04-22 17:07 | 46.29859 | 3.31824 | 37089 ft | 475 kts | 168° |
| 2026-04-22 17:07 | 46.23484 | 3.34367 | 37102 ft | 475 kts | 168° |
| 2026-04-22 17:08 | 46.17157 | 3.36892 | 37105 ft | 475 kts | 168° |
| 2026-04-22 17:08 | 46.10753 | 3.39438 | 37086 ft | 474 kts | 168° |
| 2026-04-22 17:09 | 46.04427 | 3.41950 | 37105 ft | 474 kts | 167° |
| 2026-04-22 17:09 | 45.98082 | 3.44475 | 37111 ft | 473 kts | 168° |
| 2026-04-22 17:10 | 45.91729 | 3.46987 | 37105 ft | 473 kts | 168° |
| 2026-04-22 17:10 | 45.85512 | 3.50094 | 37115 ft | 476 kts | 154° |
| 2026-04-22 17:11 | 45.79895 | 3.55173 | 37110 ft | 477 kts | 148° |
| 2026-04-22 17:11 | 45.74354 | 3.60401 | 37106 ft | 477 kts | 148° |
| 2026-04-22 17:12 | 45.68795 | 3.65619 | 37092 ft | 477 kts | 148° |
| 2026-04-22 17:12 | 45.63251 | 3.70816 | 37109 ft | 476 kts | 148° |
| 2026-04-22 17:13 | 45.57710 | 3.75995 | 37111 ft | 476 kts | 148° |
| 2026-04-22 17:13 | 45.52167 | 3.81158 | 37103 ft | 476 kts | 148° |
| 2026-04-22 17:14 | 45.46623 | 3.86320 | 37109 ft | 476 kts | 148° |
| 2026-04-22 17:14 | 45.41075 | 3.91475 | 37111 ft | 476 kts | 148° |
| 2026-04-22 17:15 | 45.35873 | 3.97286 | 37097 ft | 477 kts | 133° |
| 2026-04-22 17:15 | 45.31825 | 4.04747 | 37098 ft | 477 kts | 125° |
| 2026-04-22 17:16 | 45.27958 | 4.12323 | 37107 ft | 477 kts | 125° |
| 2026-04-22 17:16 | 45.24047 | 4.19931 | 37095 ft | 477 kts | 125° |
| 2026-04-22 17:17 | 45.20132 | 4.27544 | 37105 ft | 478 kts | 125° |
| 2026-04-22 17:17 | 45.16213 | 4.35157 | 37093 ft | 479 kts | 125° |
| 2026-04-22 17:18 | 45.12276 | 4.42776 | 37091 ft | 479 kts | 125° |
| 2026-04-22 17:18 | 45.08154 | 4.50206 | 37089 ft | 480 kts | 130° |
| 2026-04-22 17:19 | 44.99260 | 4.64299 | 37109 ft | 481 kts | 131° |
| 2026-04-22 17:20 | 44.90471 | 4.78572 | 37120 ft | 482 kts | 130° |
| 2026-04-22 17:21 | 44.83881 | 4.89271 | 37123 ft | 481 kts | 130° |
| 2026-04-22 17:22 | 44.77275 | 4.99900 | 37148 ft | 481 kts | 130° |
| 2026-04-22 17:23 | 44.70645 | 5.10534 | 37119 ft | 482 kts | 130° |
| 2026-04-22 17:23 | 44.64006 | 5.21155 | 37108 ft | 482 kts | 130° |
| 2026-04-22 17:24 | 44.59568 | 5.28213 | 37106 ft | 482 kts | 130° |
| 2026-04-22 17:24 | 44.55128 | 5.35271 | 37124 ft | 483 kts | 130° |
| 2026-04-22 17:25 | 44.50683 | 5.42325 | 37114 ft | 483 kts | 130° |
| 2026-04-22 17:25 | 44.46228 | 5.49385 | 37097 ft | 483 kts | 130° |
| 2026-04-22 17:26 | 44.41767 | 5.56419 | 37105 ft | 483 kts | 131° |
| 2026-04-22 17:26 | 44.37408 | 5.63561 | 37107 ft | 482 kts | 123° |
| 2026-04-22 17:27 | 44.33658 | 5.71308 | 37133 ft | 482 kts | 122° |
| 2026-04-22 17:27 | 44.29921 | 5.79008 | 37121 ft | 482 kts | 123° |
| 2026-04-22 17:28 | 44.26129 | 5.86795 | 37095 ft | 482 kts | 122° |
| 2026-04-22 17:28 | 44.22348 | 5.94523 | 37110 ft | 482 kts | 123° |
| 2026-04-22 17:29 | 44.18560 | 6.02244 | 37110 ft | 482 kts | 123° |
| 2026-04-22 17:29 | 44.14798 | 6.09912 | 37137 ft | 482 kts | 123° |
| 2026-04-22 17:30 | 44.11008 | 6.17623 | 37131 ft | 483 kts | 123° |
| 2026-04-22 17:30 | 44.07205 | 6.25340 | 37123 ft | 484 kts | 123° |
| 2026-04-22 17:31 | 44.03397 | 6.33043 | 37120 ft | 483 kts | 123° |
| 2026-04-22 17:31 | 43.99580 | 6.40733 | 37131 ft | 483 kts | 123° |
| 2026-04-22 17:32 | 43.97666 | 6.44576 | 36960 ft | 483 kts | 123° |
| 2026-04-22 17:32 | 43.95755 | 6.48410 | 36719 ft | 482 kts | 123° |
| 2026-04-22 17:32 | 43.93849 | 6.52233 | 36459 ft | 482 kts | 123° |
| 2026-04-22 17:32 | 43.91933 | 6.56068 | 36204 ft | 483 kts | 123° |
| 2026-04-22 17:33 | 43.90639 | 6.58654 | 36037 ft | 484 kts | 123° |
| 2026-04-22 17:33 | 43.88741 | 6.62442 | 35783 ft | 485 kts | 123° |
| 2026-04-22 17:33 | 43.86818 | 6.66281 | 35531 ft | 485 kts | 123° |
| 2026-04-22 17:33 | 43.84897 | 6.70111 | 35282 ft | 484 kts | 123° |
| 2026-04-22 17:34 | 43.82979 | 6.73935 | 35017 ft | 483 kts | 122° |
| 2026-04-22 17:34 | 43.81064 | 6.77747 | 34784 ft | 481 kts | 123° |
| 2026-04-22 17:34 | 43.79156 | 6.81542 | 34533 ft | 480 kts | 122° |
| 2026-04-22 17:34 | 43.77253 | 6.85322 | 34314 ft | 478 kts | 123° |
| 2026-04-22 17:35 | 43.75352 | 6.89087 | 34065 ft | 476 kts | 123° |
| 2026-04-22 17:35 | 43.73460 | 6.92825 | 33790 ft | 474 kts | 123° |
| 2026-04-22 17:35 | 43.71490 | 6.96462 | 33513 ft | 472 kts | 129° |
| 2026-04-22 17:35 | 43.69347 | 6.99899 | 33242 ft | 470 kts | 130° |
| 2026-04-22 17:36 | 43.67222 | 7.03308 | 32923 ft | 465 kts | 130° |
| 2026-04-22 17:36 | 43.65120 | 7.06685 | 32379 ft | 463 kts | 130° |
| 2026-04-22 17:36 | 43.63029 | 7.10039 | 31867 ft | 460 kts | 130° |
| 2026-04-22 17:36 | 43.60942 | 7.13380 | 31362 ft | 457 kts | 131° |
| 2026-04-22 17:37 | 43.58872 | 7.16690 | 30857 ft | 454 kts | 131° |
| 2026-04-22 17:37 | 43.56812 | 7.19980 | 30374 ft | 452 kts | 131° |
| 2026-04-22 17:37 | 43.54954 | 7.23453 | 29824 ft | 449 kts | 121° |
| 2026-04-22 17:37 | 43.53522 | 7.27244 | 29360 ft | 444 kts | 113° |
| 2026-04-22 17:38 | 43.52262 | 7.31106 | 28880 ft | 440 kts | 113° |
| 2026-04-22 17:38 | 43.51008 | 7.34929 | 28422 ft | 436 kts | 113° |
| 2026-04-22 17:38 | 43.49759 | 7.38717 | 27964 ft | 432 kts | 113° |
| 2026-04-22 17:38 | 43.48517 | 7.42474 | 27509 ft | 429 kts | 113° |
| 2026-04-22 17:39 | 43.47284 | 7.46204 | 27048 ft | 427 kts | 113° |
| 2026-04-22 17:39 | 43.46056 | 7.49910 | 26590 ft | 424 kts | 113° |
| 2026-04-22 17:39 | 43.43618 | 7.57261 | 25661 ft | 421 kts | 113° |
| 2026-04-22 17:40 | 43.42403 | 7.60917 | 25169 ft | 420 kts | 113° |
| 2026-04-22 17:40 | 43.41188 | 7.64563 | 24670 ft | 419 kts | 113° |
| 2026-04-22 17:40 | 43.39974 | 7.68205 | 24160 ft | 419 kts | 113° |
| 2026-04-22 17:40 | 43.38776 | 7.71804 | 23642 ft | 419 kts | 113° |
| 2026-04-22 17:41 | 43.37562 | 7.75451 | 23066 ft | 418 kts | 113° |
| 2026-04-22 17:41 | 43.36353 | 7.79077 | 22562 ft | 416 kts | 113° |
| 2026-04-22 17:41 | 43.35152 | 7.82682 | 22055 ft | 414 kts | 113° |
| 2026-04-22 17:41 | 43.33953 | 7.86272 | 21547 ft | 412 kts | 113° |
| 2026-04-22 17:42 | 43.32754 | 7.89843 | 21045 ft | 411 kts | 113° |
| 2026-04-22 17:42 | 43.31558 | 7.93400 | 20540 ft | 409 kts | 113° |
| 2026-04-22 17:42 | 43.30368 | 7.96936 | 20039 ft | 408 kts | 113° |
| 2026-04-22 17:42 | 43.29177 | 8.00452 | 19643 ft | 404 kts | 113° |
| 2026-04-22 17:43 | 43.27987 | 8.03962 | 19166 ft | 402 kts | 113° |
| 2026-04-22 17:43 | 43.26818 | 8.07415 | 18770 ft | 398 kts | 113° |
| 2026-04-22 17:43 | 43.25654 | 8.10852 | 18302 ft | 396 kts | 113° |
| 2026-04-22 17:43 | 43.24504 | 8.14249 | 17541 ft | 389 kts | 113° |
| 2026-04-22 17:44 | 43.23388 | 8.17545 | 17063 ft | 374 kts | 112° |
| 2026-04-22 17:44 | 43.22310 | 8.20721 | 16630 ft | 360 kts | 112° |
| 2026-04-22 17:44 | 43.21258 | 8.23811 | 16200 ft | 358 kts | 112° |
| 2026-04-22 17:44 | 43.20207 | 8.26904 | 15763 ft | 358 kts | 112° |
| 2026-04-22 17:45 | 43.19159 | 8.29989 | 15334 ft | 357 kts | 112° |
| 2026-04-22 17:45 | 43.18106 | 8.33077 | 14900 ft | 357 kts | 112° |
| 2026-04-22 17:45 | 43.17069 | 8.36117 | 14472 ft | 355 kts | 112° |
| 2026-04-22 17:45 | 43.16026 | 8.39161 | 14039 ft | 342 kts | 112° |
| 2026-04-22 17:46 | 43.15047 | 8.42015 | 13597 ft | 330 kts | 113° |
| 2026-04-22 17:46 | 43.13904 | 8.44676 | 13205 ft | 319 kts | 124° |
| 2026-04-22 17:46 | 43.12617 | 8.47072 | 12820 ft | 307 kts | 124° |
| 2026-04-22 17:46 | 43.11364 | 8.49404 | 12423 ft | 302 kts | 124° |
| 2026-04-22 17:47 | 43.10118 | 8.51726 | 12045 ft | 304 kts | 124° |
| 2026-04-22 17:47 | 43.08865 | 8.54059 | 11656 ft | 305 kts | 124° |
| 2026-04-22 17:47 | 43.07604 | 8.56401 | 11257 ft | 306 kts | 124° |
| 2026-04-22 17:47 | 43.06340 | 8.58741 | 10857 ft | 306 kts | 124° |
| 2026-04-22 17:48 | 43.05499 | 8.60299 | 10579 ft | 307 kts | 124° |
| 2026-04-22 17:48 | 43.03797 | 8.63446 | 10007 ft | 308 kts | 125° |
| 2026-04-22 17:48 | 43.02521 | 8.65806 | 9590 ft | 308 kts | 124° |
| 2026-04-22 17:48 | 43.01252 | 8.68150 | 9230 ft | 304 kts | 124° |
| 2026-04-22 17:49 | 43.00001 | 8.70458 | 8911 ft | 299 kts | 124° |
| 2026-04-22 17:49 | 42.98763 | 8.72740 | 8528 ft | 297 kts | 123° |
| 2026-04-22 17:49 | 42.97542 | 8.74990 | 8190 ft | 293 kts | 123° |
| 2026-04-22 17:49 | 42.96218 | 8.77030 | 7729 ft | 291 kts | 137° |
| 2026-04-22 17:50 | 42.94503 | 8.78466 | 7194 ft | 289 kts | 155° |
| 2026-04-22 17:50 | 42.92561 | 8.79137 | 6575 ft | 288 kts | 173° |
| 2026-04-22 17:50 | 42.90572 | 8.79183 | 5963 ft | 283 kts | 177° |
| 2026-04-22 17:50 | 42.88635 | 8.79186 | 5433 ft | 274 kts | 177° |
| 2026-04-22 17:51 | 42.86735 | 8.79186 | 4923 ft | 274 kts | 176° |
| 2026-04-22 17:51 | 42.84846 | 8.79185 | 4425 ft | 268 kts | 177° |
| 2026-04-22 17:51 | 42.83022 | 8.79183 | 4193 ft | 252 kts | 176° |
| 2026-04-22 17:51 | 42.81344 | 8.79176 | 4050 ft | 231 kts | 176° |
| 2026-04-22 17:52 | 42.79744 | 8.79172 | 3768 ft | 228 kts | 176° |
| 2026-04-22 17:52 | 42.78191 | 8.79169 | 3622 ft | 218 kts | 175° |
| 2026-04-22 17:52 | 42.76692 | 8.79170 | 3513 ft | 213 kts | 175° |
| 2026-04-22 17:52 | 42.75212 | 8.79178 | 3416 ft | 213 kts | 175° |
| 2026-04-22 17:53 | 42.73746 | 8.79190 | 3324 ft | 212 kts | 175° |
| 2026-04-22 17:53 | 42.72301 | 8.79199 | 3222 ft | 204 kts | 175° |
| 2026-04-22 17:53 | 42.70889 | 8.79207 | 3169 ft | 202 kts | 174° |
| 2026-04-22 17:53 | 42.69502 | 8.79215 | 3050 ft | 193 kts | 174° |
| 2026-04-22 17:54 | 42.68189 | 8.79219 | 2912 ft | 186 kts | 175° |
| 2026-04-22 17:54 | 42.66902 | 8.79223 | 2616 ft | 177 kts | 175° |
| 2026-04-22 17:54 | 42.65713 | 8.79228 | 2397 ft | 167 kts | 176° |
| 2026-04-22 17:54 | 42.64613 | 8.79233 | 2158 ft | 149 kts | 177° |
| 2026-04-22 17:55 | 42.63944 | 8.79237 | 2023 ft | 143 kts | 177° |
| 2026-04-22 17:55 | 42.62652 | 8.79246 | 1776 ft | 136 kts | 179° |
| 2026-04-22 17:55 | 42.61711 | 8.79254 | 1597 ft | 134 kts | 179° |
| 2026-04-22 17:55 | 42.60788 | 8.79261 | 1421 ft | 134 kts | 179° |
| 2026-04-22 17:56 | 42.59853 | 8.79266 | 1248 ft | 135 kts | 177° |
| 2026-04-22 17:56 | 42.58913 | 8.79266 | 1036 ft | 135 kts | 176° |
| 2026-04-22 17:56 | 42.57966 | 8.79268 | 779 ft | 138 kts | 176° |
| 2026-04-22 17:56 | 42.57000 | 8.79272 | 564 ft | 139 kts | 178° |
| 2026-04-22 17:57 | 42.56028 | 8.79295 | 423 ft | 138 kts | 178° |
| 2026-04-22 17:57 | 42.55081 | 8.79299 | 264 ft | 136 kts | 181° |
| 2026-04-22 17:57 | 42.54130 | 8.79296 | 129 ft | 137 kts | 181° |
| 2026-04-22 17:57 | 42.53261 | 8.79291 | 134 ft | 94 kts | 179° |
| 2026-04-22 17:58 | 42.52837 | 8.79299 | 165 ft | 47 kts | 179° |
| 2026-04-22 17:58 | 42.52556 | 8.79301 | 188 ft | 29 kts | 179° |
| 2026-04-22 17:58 | 42.52438 | 8.79279 | 200 ft | 6 kts | 256° |
| 2026-04-22 17:58 | 42.52436 | 8.79196 | 194 ft | 13 kts | 266° |
| 2026-04-22 17:59 | 42.52481 | 8.79162 | 198 ft | 7 kts | 336° |
| 2026-04-22 17:59 | 42.52508 | 8.79102 | 191 ft | 5 kts | 300° |
| 2026-04-22 17:59 | 42.52515 | 8.79087 | 195 ft | 2 kts | 300° |
| 2026-04-22 17:59 | 42.52518 | 8.79080 | 193 ft | 0 kts | 300° |